ADDS METAR Data INFO
IDs: Format: Raw Decoded Include TAF

Data at: 1943 UTC 17 Feb 2018

KFLL 171853Z 11012KT 10SM FEW029 26/20 A3016 RMK AO2 SLP213 T02610200
KFLL 171753Z 10010G17KT 10SM SCT035 27/20 A3019 RMK AO2 SLP221 T02670200 10272 20189 58013
KFLL 171653Z 12007KT 10SM FEW035 27/20 A3021 RMK AO2 SLP229 T02670200
KFLL 171553Z 13007KT 10SM FEW031 26/19 A3023 RMK AO2 SLP235 T02560194
KFLL 171453Z 11006KT 10SM FEW035 25/19 A3022 RMK AO2 SLP234 T02500194 51016
KFLL 171353Z 00000KT 10SM FEW030 24/19 A3021 RMK AO2 SLP231 T02390194
KFLL 171253Z 00000KT 10SM FEW030 21/19 A3020 RMK AO2 SLP225 T02060194
KFLL 171153Z 00000KT 10SM FEW025 19/19 A3018 RMK AO2 SLP218 T01890189 10222 20183 53006
KFLL 171053Z 00000KT 10SM FEW045 19/19 A3016 RMK AO2 SLP214 T01890189
KFLL 170953Z 00000KT 10SM FEW040 19/19 A3016 RMK AO2 SLP212 T01890189
KFLL 170853Z 00000KT 10SM FEW040 21/19 A3016 RMK AO2 SLP212 T02060189 56012
KFLL 170753Z 28003KT 10SM FEW035 21/19 A3017 RMK AO2 SLP214 T02110194
KFLL 170653Z 20004KT 10SM FEW040 22/19 A3017 RMK AO2 SLP217 T02170194
KFLL 170553Z 18003KT 10SM FEW035 22/19 A3019 RMK AO2 SLP223 T02220194 10239 20217 58005
KFLL 170453Z 21003KT 10SM FEW040 23/19 A3020 RMK AO2 SLP225 T02280194 402720189
KFLL 170353Z 20003KT 10SM FEW040 23/19 A3021 RMK AO2 SLP228 T02280194
KFLL 170253Z 21003KT 10SM CLR 23/19 A3021 RMK AO2 SLP228 T02280194 53015
KFLL 170153Z 17005KT 10SM CLR 23/19 A3019 RMK AO2 SLP223 T02330194
KFLL 170053Z 15005KT 10SM FEW040 23/19 A3017 RMK AO2 SLP217 T02330189
KFLL 162353Z 17006KT 10SM FEW040 23/19 A3016 RMK AO2 SLP213 T02330189 10272 20233 53010
KFLL 162253Z 15008KT 10SM FEW040 FEW250 24/19 A3015 RMK AO2 SLP209 T02440189
KFLL 162153Z 14009KT 10SM FEW040 26/19 A3014 RMK AO2 SLP205 T02560189
KFLL 162053Z 14012KT 10SM FEW040 27/19 A3013 RMK AO2 SLP203 T02670189 56009
KFLL 161953Z 13014KT 10SM FEW040 26/18 A3014 RMK AO2 SLP204 T02610183
KFLL 161853Z 14014KT 10SM FEW040 27/18 A3015 RMK AO2 SLP208 T02670178
KFLL 161753Z 14013KT 10SM FEW040 26/18 A3016 RMK AO2 SLP213 T02610183 10267 20194 58026
KFLL 161653Z 15010G14KT 10SM FEW040 27/18 A3019 RMK AO2 SLP224 T02670178
KFLL 161553Z 24006KT 10SM SCT040 25/17 A3022 RMK AO2 SLP234 T02500167
KFLL 161453Z VRB04KT 10SM FEW035 24/18 A3024 RMK AO2 SLP238 T02390183 51009
KFLL 161353Z 22004KT 10SM FEW035 23/18 A3023 RMK AO2 SLP237 T02280183
KFLL 161253Z 21005KT 10SM FEW035 22/18 A3022 RMK AO2 SLP232 T02170178
KFLL 161153Z 00000KT 10SM FEW023 20/17 A3021 RMK AO2 SLP229 T02000172 10217 20189 53007
KFLL 161053Z 21004KT 10SM CLR 21/18 A3019 RMK AO2 SLP223 T02060178
KFLL 160953Z 00000KT 10SM CLR 20/17 A3019 RMK AO2 SLP221 T02000172 $
KFLL 160853Z 00000KT 10SM CLR 19/17 A3019 RMK AO2 SLP222 T01940172 56012 $
KFLL 160753Z 00000KT 10SM CLR 20/17 A3019 RMK AO2 SLP224 T02000172 $